Isle of Skye, United Kingdom
Current Conditions -  °F | °C
As of 12:20 AM on Thursday 23 Oct 2014 (Local Time) from EGPU Reporting Station
Moderate Rain Moderate Rain  
Wind Chill: 54°   Ceiling: 500
Heat Index: 54°   Visibility: 1.7mi
Dew Point: 54°   Wind: 26mph
Humidity: 100%   Direction: 230°SW
Pressure: 29.77"   Gusts: NA
Location:  57.11°N, 5.86°W
Report Text: EGPU 222320Z AUTO 23023KT 200V270 2800 RADZ BKN005/// 12/12 Q1008
Loading
Personal Weather Stations






























Interactive Weather Map
Tropical Storm Tracking
New forecast layout! Learn more

10-Day Weather Forecast

Advertisements
Track Severe Weather on mobile